createdAt,value
2023-02-15T00:00:26.185Z,0.00
2023-02-15T00:01:26.184Z,0.00
2023-02-15T00:02:26.201Z,0.00
2023-02-15T00:03:26.209Z,0.00
2023-02-15T00:04:26.163Z,0.00
2023-02-15T00:05:26.160Z,0.00
2023-02-15T00:06:26.147Z,0.00
2023-02-15T00:07:26.164Z,0.00
2023-02-15T00:08:26.142Z,0.00
2023-02-15T00:09:26.122Z,0.00
2023-02-15T00:10:26.115Z,0.00
2023-02-15T00:11:26.108Z,0.00
2023-02-15T00:12:26.128Z,0.00
2023-02-15T00:13:26.092Z,0.00
2023-02-15T00:14:26.084Z,0.00
2023-02-15T00:15:26.072Z,0.00
2023-02-15T00:16:26.092Z,0.00
2023-02-15T00:17:26.086Z,0.00
2023-02-15T00:18:26.051Z,0.00
2023-02-15T00:19:26.042Z,0.00
2023-02-15T00:20:26.031Z,0.00
2023-02-15T00:21:26.028Z,0.00
2023-02-15T00:22:26.053Z,0.00
2023-02-15T00:23:26.011Z,0.00
2023-02-15T00:24:26.008Z,0.00
2023-02-15T00:25:26.000Z,0.00
2023-02-15T00:26:25.988Z,0.00
2023-02-15T00:27:26.012Z,0.00
2023-02-15T00:28:25.979Z,0.00
2023-02-15T00:29:25.967Z,0.00
2023-02-15T00:30:26.061Z,0.00
2023-02-15T00:31:26.098Z,0.00
2023-02-15T00:32:25.974Z,0.00
2023-02-15T00:33:25.938Z,0.00
2023-02-15T00:34:25.944Z,0.00
2023-02-15T00:35:25.927Z,0.00
2023-02-15T00:36:25.915Z,0.00
2023-02-15T00:37:25.939Z,0.00
2023-02-15T00:38:25.900Z,0.00
2023-02-15T00:39:25.897Z,0.00
2023-02-15T00:40:25.889Z,0.00
2023-02-15T00:41:25.888Z,0.00
2023-02-15T00:42:26.043Z,0.00
2023-02-15T00:43:25.861Z,0.00
2023-02-15T00:44:25.855Z,0.00
2023-02-15T00:45:25.848Z,0.00
2023-02-15T00:46:25.840Z,0.00
2023-02-15T00:47:25.833Z,0.00
2023-02-15T00:48:25.848Z,0.00
2023-02-15T00:49:25.825Z,0.00
2023-02-15T00:50:25.812Z,0.00
2023-02-15T00:51:25.810Z,0.00
2023-02-15T00:52:25.807Z,0.00
2023-02-15T00:53:25.835Z,0.00
2023-02-15T00:54:25.786Z,0.00
2023-02-15T00:55:25.774Z,0.00
2023-02-15T00:56:26.783Z,0.00
2023-02-15T00:57:25.770Z,0.00
2023-02-15T00:58:25.784Z,0.00
2023-02-15T00:59:25.754Z,0.00
2023-02-15T01:00:25.781Z,0.00
2023-02-15T01:01:25.767Z,0.00
2023-02-15T01:02:25.734Z,0.00
2023-02-15T01:03:25.753Z,0.00
2023-02-15T01:04:25.736Z,0.00
2023-02-15T01:05:25.712Z,0.00
2023-02-15T01:06:25.708Z,0.00
2023-02-15T01:07:25.700Z,0.00
2023-02-15T01:08:25.724Z,0.00
2023-02-15T01:09:25.687Z,0.00
2023-02-15T01:10:25.678Z,0.00
2023-02-15T01:11:25.670Z,0.00
2023-02-15T01:12:25.665Z,0.00
2023-02-15T01:13:25.682Z,0.00
2023-02-15T01:14:25.649Z,0.00
2023-02-15T01:15:25.640Z,0.00
2023-02-15T01:16:25.730Z,0.00
2023-02-15T01:17:25.711Z,0.00
2023-02-15T01:18:25.648Z,0.00
2023-02-15T01:19:25.614Z,0.00
2023-02-15T01:20:25.618Z,0.00
2023-02-15T01:21:25.617Z,0.00
2023-02-15T01:22:25.594Z,0.00
2023-02-15T01:23:25.616Z,0.00
2023-02-15T01:24:25.589Z,0.00
2023-02-15T01:25:25.577Z,0.00
2023-02-15T01:26:25.561Z,0.00
2023-02-15T01:27:25.565Z,0.00
2023-02-15T01:28:25.574Z,0.00
2023-02-15T01:29:25.550Z,0.00
2023-02-15T01:30:25.565Z,0.00
2023-02-15T01:31:25.581Z,0.00
2023-02-15T01:32:25.523Z,0.00
2023-02-15T01:33:25.538Z,0.00
2023-02-15T01:34:25.508Z,0.00
2023-02-15T01:35:25.506Z,0.00
2023-02-15T01:36:25.493Z,0.00
2023-02-15T01:37:25.487Z,0.00
2023-02-15T01:38:25.505Z,0.00
2023-02-15T01:39:25.466Z,0.00
2023-02-15T01:40:25.462Z,0.00
2023-02-15T01:41:25.467Z,0.00
2023-02-15T01:42:25.448Z,0.00
2023-02-15T01:43:25.465Z,0.00
2023-02-15T01:44:25.432Z,0.00
2023-02-15T01:45:25.428Z,0.00
2023-02-15T01:46:25.423Z,0.00
2023-02-15T01:48:25.429Z,0.00
2023-02-15T01:49:25.396Z,0.00
2023-02-15T01:50:25.387Z,0.00
2023-02-15T01:51:25.383Z,0.00
2023-02-15T01:52:25.371Z,0.00
2023-02-15T01:53:25.391Z,0.00
2023-02-15T01:54:25.361Z,0.00
2023-02-15T01:55:25.348Z,0.00
2023-02-15T01:56:25.351Z,0.00
2023-02-15T01:57:25.341Z,0.00
2023-02-15T01:58:25.350Z,0.00
2023-02-15T01:59:25.315Z,0.00
2023-02-15T02:00:25.308Z,0.00
2023-02-15T02:01:25.313Z,0.00
2023-02-15T02:02:25.337Z,0.00
2023-02-15T02:03:25.320Z,0.00
2023-02-15T02:04:25.274Z,0.00
2023-02-15T02:05:25.274Z,0.00
2023-02-15T02:06:26.277Z,0.00
2023-02-15T02:07:26.258Z,0.00
2023-02-15T02:08:25.252Z,0.00
2023-02-15T02:09:25.266Z,0.00
2023-02-15T02:10:25.251Z,0.00
2023-02-15T02:11:25.226Z,0.00
2023-02-15T02:12:25.211Z,0.00
2023-02-15T02:13:26.219Z,0.00
2023-02-15T02:14:25.236Z,0.00
2023-02-15T02:15:25.198Z,0.00
2023-02-15T02:16:25.259Z,0.00
2023-02-15T02:17:25.197Z,0.00
2023-02-15T02:18:25.180Z,0.00
2023-02-15T02:19:25.196Z,0.00
2023-02-15T02:20:25.161Z,0.00
2023-02-15T02:21:25.163Z,0.00
2023-02-15T02:22:25.144Z,0.00
2023-02-15T02:23:25.160Z,0.00
2023-02-15T02:24:25.158Z,0.00
2023-02-15T02:25:25.137Z,0.00
2023-02-15T02:26:25.121Z,0.00
2023-02-15T02:27:25.111Z,0.00
2023-02-15T02:28:25.101Z,0.00
2023-02-15T02:29:25.120Z,0.00
2023-02-15T02:30:25.188Z,0.00
2023-02-15T02:31:25.172Z,0.00
2023-02-15T02:32:25.079Z,0.00
2023-02-15T02:33:25.070Z,0.00
2023-02-15T02:34:25.093Z,0.00
2023-02-15T02:35:25.058Z,0.00
2023-02-15T02:36:25.046Z,0.00
2023-02-15T02:37:25.042Z,0.00
2023-02-15T02:38:25.033Z,0.00
2023-02-15T02:39:25.056Z,0.00
2023-02-15T02:40:25.022Z,0.00
2023-02-15T02:41:25.009Z,0.00
2023-02-15T02:42:25.011Z,0.00
2023-02-15T02:43:24.997Z,0.00
2023-02-15T02:44:24.994Z,0.00
2023-02-15T02:45:25.005Z,0.00
2023-02-15T02:46:25.019Z,0.00
2023-02-15T02:47:24.976Z,0.00
2023-02-15T02:48:24.966Z,0.00
2023-02-15T02:49:24.985Z,0.00
2023-02-15T02:50:24.953Z,0.00
2023-02-15T02:51:24.951Z,0.00
2023-02-15T02:52:24.934Z,0.00
2023-02-15T02:53:24.928Z,0.00
2023-02-15T02:54:24.926Z,0.00
2023-02-15T02:55:24.940Z,0.00
2023-02-15T02:56:24.917Z,0.00
2023-02-15T02:57:24.899Z,0.00
2023-02-15T02:58:24.898Z,0.00
2023-02-15T02:59:24.888Z,0.00
2023-02-15T03:00:24.905Z,0.00
2023-02-15T03:01:25.926Z,0.00
2023-02-15T03:02:24.905Z,0.00
2023-02-15T03:03:24.854Z,0.00
2023-02-15T03:04:24.851Z,0.00
2023-02-15T03:05:24.850Z,0.00
2023-02-15T03:06:25.830Z,0.00
2023-02-15T03:07:24.825Z,0.00
2023-02-15T03:08:24.815Z,0.00
2023-02-15T03:09:24.804Z,0.00
2023-02-15T03:10:24.820Z,0.00
2023-02-15T03:11:24.788Z,0.00
2023-02-15T03:12:24.801Z,0.00
2023-02-15T03:13:24.779Z,0.00
2023-02-15T03:14:24.768Z,0.00
2023-02-15T03:15:24.795Z,0.00
2023-02-15T03:16:24.808Z,0.00
2023-02-15T03:17:24.748Z,0.00
2023-02-15T03:18:24.736Z,0.00
2023-02-15T03:19:24.730Z,0.00
2023-02-15T03:20:24.748Z,0.00
2023-02-15T03:21:24.718Z,0.00
2023-02-15T03:22:24.708Z,0.00
2023-02-15T03:23:24.707Z,0.00
2023-02-15T03:24:26.253Z,0.00
2023-02-15T03:25:24.733Z,0.00
2023-02-15T03:26:24.690Z,0.00
2023-02-15T03:27:24.683Z,0.00
2023-02-15T03:28:24.665Z,0.00
2023-02-15T03:29:24.661Z,0.00
2023-02-15T03:30:24.721Z,0.00
2023-02-15T03:31:24.742Z,0.00
2023-02-15T03:32:24.641Z,0.00
2023-02-15T03:33:24.632Z,0.00
2023-02-15T03:34:24.639Z,0.00
2023-02-15T03:35:24.653Z,0.00
2023-02-15T03:36:24.609Z,0.00
2023-02-15T03:37:24.615Z,0.00
2023-02-15T03:38:24.583Z,0.00
2023-02-15T03:39:25.585Z,0.00
2023-02-15T03:40:24.602Z,0.00
2023-02-15T03:41:24.580Z,0.00
2023-02-15T03:42:24.575Z,0.00
2023-02-15T03:43:24.562Z,0.00
2023-02-15T03:44:24.556Z,0.00
2023-02-15T03:45:24.570Z,0.00
2023-02-15T03:46:24.577Z,0.00
2023-02-15T03:47:24.549Z,0.00
2023-02-15T03:48:24.527Z,0.00
2023-02-15T03:49:24.529Z,0.00
2023-02-15T03:50:24.532Z,0.00
2023-02-15T03:51:24.501Z,0.00
2023-02-15T03:52:24.485Z,0.00
2023-02-15T03:53:24.498Z,0.00
2023-02-15T03:54:24.479Z,0.00
2023-02-15T03:55:24.500Z,0.00
2023-02-15T03:56:24.465Z,0.00
2023-02-15T03:57:24.454Z,0.00
2023-02-15T03:58:24.446Z,0.00
2023-02-15T03:59:24.443Z,0.00
2023-02-15T04:00:24.465Z,0.00
2023-02-15T04:01:24.469Z,0.00
2023-02-15T04:02:24.419Z,0.00
2023-02-15T04:03:24.433Z,0.00
2023-02-15T04:04:25.651Z,0.00
2023-02-15T04:05:25.431Z,0.00
2023-02-15T04:06:24.393Z,0.00
2023-02-15T04:07:24.384Z,0.00
2023-02-15T04:08:24.380Z,0.00
2023-02-15T04:09:24.378Z,0.00
2023-02-15T04:10:24.363Z,0.00
2023-02-15T04:11:24.382Z,0.00
2023-02-15T04:12:24.355Z,0.00
2023-02-15T04:13:24.361Z,0.00
2023-02-15T04:14:24.337Z,0.00
2023-02-15T04:15:24.326Z,0.00
2023-02-15T04:16:24.384Z,0.00
2023-02-15T04:17:24.310Z,0.00
2023-02-15T04:18:24.301Z,0.00
2023-02-15T04:19:24.291Z,0.00
2023-02-15T04:20:24.299Z,0.00
2023-02-15T04:21:24.302Z,0.00
2023-02-15T04:22:24.267Z,0.00
2023-02-15T04:23:24.261Z,0.00
2023-02-15T04:24:24.260Z,0.00
2023-02-15T04:25:24.258Z,0.00
2023-02-15T04:26:24.275Z,0.00
2023-02-15T04:27:24.233Z,0.00
2023-02-15T04:28:24.229Z,0.00
2023-02-15T04:29:25.217Z,0.00
2023-02-15T04:30:24.262Z,0.00
2023-02-15T04:31:24.438Z,0.00
2023-02-15T04:32:24.195Z,0.00
2023-02-15T04:33:24.197Z,0.00
2023-02-15T04:34:24.187Z,0.00
2023-02-15T04:35:24.179Z,0.00
2023-02-15T04:36:24.169Z,0.00
2023-02-15T04:37:24.184Z,0.00
2023-02-15T04:38:24.169Z,0.00
2023-02-15T04:39:24.142Z,0.00
2023-02-15T04:40:24.135Z,0.00
2023-02-15T04:41:24.118Z,0.00
2023-02-15T04:42:24.141Z,0.00
2023-02-15T04:43:24.122Z,0.00
2023-02-15T04:44:24.107Z,0.00
2023-02-15T04:45:25.094Z,0.00
2023-02-15T04:46:24.211Z,0.00
2023-02-15T04:47:24.109Z,0.00
2023-02-15T04:48:24.074Z,0.00
2023-02-15T04:49:24.074Z,0.00
2023-02-15T04:50:24.067Z,0.00
2023-02-15T04:51:24.053Z,0.00
2023-02-15T04:52:24.073Z,0.00
2023-02-15T04:53:24.033Z,0.00
2023-02-15T04:54:24.030Z,0.00
2023-02-15T04:55:24.021Z,0.00
2023-02-15T04:56:24.017Z,0.00
2023-02-15T04:57:24.031Z,0.00
2023-02-15T04:58:23.999Z,0.00
2023-02-15T04:59:23.994Z,0.00
2023-02-15T05:00:23.994Z,0.00
2023-02-15T05:01:24.059Z,0.00
2023-02-15T05:02:24.028Z,0.00
2023-02-15T05:03:23.961Z,0.00
2023-02-15T05:04:24.010Z,0.00
2023-02-15T05:05:23.946Z,0.00
2023-02-15T05:06:23.938Z,0.00
2023-02-15T05:07:23.957Z,0.00
2023-02-15T05:08:23.925Z,0.00
2023-02-15T05:09:23.918Z,0.00
2023-02-15T05:10:23.917Z,0.00
2023-02-15T05:11:23.902Z,0.00
2023-02-15T05:12:23.931Z,0.00
2023-02-15T05:13:23.892Z,0.00
2023-02-15T05:14:23.875Z,0.00
2023-02-15T05:15:23.868Z,0.00
2023-02-15T05:16:23.910Z,0.00
2023-02-15T05:17:23.890Z,0.00
2023-02-15T05:18:23.854Z,0.00
2023-02-15T05:19:23.847Z,0.00
2023-02-15T05:20:23.836Z,0.00
2023-02-15T05:21:23.829Z,0.00
2023-02-15T05:22:23.843Z,0.00
2023-02-15T05:23:23.816Z,0.00
2023-02-15T05:24:23.813Z,0.00
2023-02-15T05:25:23.807Z,0.00
2023-02-15T05:26:23.792Z,0.00
2023-02-15T05:27:23.813Z,0.00
2023-02-15T05:28:23.782Z,0.00
2023-02-15T05:29:23.777Z,0.00
2023-02-15T05:30:23.925Z,0.00
2023-02-15T05:31:23.977Z,0.00
2023-02-15T05:32:24.893Z,0.00
2023-02-15T05:33:23.745Z,0.00
2023-02-15T05:34:23.753Z,0.00
2023-02-15T05:35:23.730Z,0.00
2023-02-15T05:36:23.723Z,0.00
2023-02-15T05:37:23.741Z,0.00
2023-02-15T05:38:23.721Z,0.00
2023-02-15T05:39:23.698Z,0.00
2023-02-15T05:40:23.700Z,0.00
2023-02-15T05:41:23.693Z,0.00
2023-02-15T05:42:23.714Z,0.00
2023-02-15T05:43:23.675Z,0.00
2023-02-15T05:44:23.660Z,0.00
2023-02-15T05:45:23.659Z,0.00
2023-02-15T05:46:23.750Z,0.00
2023-02-15T05:47:23.678Z,0.00
2023-02-15T05:48:23.644Z,0.00
2023-02-15T05:49:23.630Z,0.00
2023-02-15T05:50:23.627Z,0.00
2023-02-15T05:51:23.632Z,0.00
2023-02-15T05:52:23.615Z,0.00
2023-02-15T05:53:23.632Z,0.00
2023-02-15T05:54:23.602Z,0.00
2023-02-15T05:55:23.594Z,0.00
2023-02-15T05:56:23.594Z,0.00
2023-02-15T05:57:23.578Z,0.00
2023-02-15T05:58:23.592Z,0.00
2023-02-15T05:59:23.564Z,0.00
2023-02-15T06:00:23.560Z,0.00
2023-02-15T06:01:23.552Z,0.00
2023-02-15T06:02:23.614Z,0.00
2023-02-15T06:03:23.587Z,0.00
2023-02-15T06:04:23.529Z,0.00
2023-02-15T06:05:23.518Z,0.00
2023-02-15T06:06:23.514Z,4.00
2023-02-15T06:07:23.503Z,0.00
2023-02-15T06:08:23.531Z,4.00
2023-02-15T06:09:23.521Z,4.00
2023-02-15T06:10:23.489Z,4.00
2023-02-15T06:11:23.477Z,4.00
2023-02-15T06:12:23.469Z,4.00
2023-02-15T06:13:23.498Z,8.00
2023-02-15T06:14:23.460Z,4.00
2023-02-15T06:15:23.446Z,8.00
2023-02-15T06:16:23.448Z,8.00
2023-02-15T06:17:23.442Z,8.00
2023-02-15T06:18:23.454Z,8.00
2023-02-15T06:19:23.414Z,12.00
2023-02-15T06:20:23.412Z,16.00
2023-02-15T06:21:23.410Z,16.00
2023-02-15T06:22:23.405Z,20.00
2023-02-15T06:23:23.408Z,20.00
2023-02-15T06:24:24.385Z,28.00
2023-02-15T06:25:23.376Z,28.00
2023-02-15T06:26:23.372Z,32.00
2023-02-15T06:27:23.361Z,36.00
2023-02-15T06:28:23.384Z,40.00
2023-02-15T06:29:23.349Z,44.00
2023-02-15T06:30:23.397Z,48.00
2023-02-15T06:31:23.407Z,56.00
2023-02-15T06:32:23.347Z,60.00
2023-02-15T06:33:23.354Z,64.00
2023-02-15T06:34:23.309Z,72.00
2023-02-15T06:35:23.298Z,84.00
2023-02-15T06:36:23.288Z,92.00
2023-02-15T06:37:23.283Z,100.00
2023-02-15T06:38:23.304Z,108.00
2023-02-15T06:39:23.265Z,116.00
2023-02-15T06:40:23.258Z,124.00
2023-02-15T06:41:23.263Z,132.00
2023-02-15T06:42:23.247Z,140.00
2023-02-15T06:43:23.261Z,148.00
2023-02-15T06:44:23.230Z,160.00
2023-02-15T06:45:23.227Z,172.00
2023-02-15T06:46:23.279Z,184.00
2023-02-15T06:47:23.208Z,192.00
2023-02-15T06:48:23.225Z,200.00
2023-02-15T06:49:23.198Z,208.00
2023-02-15T06:50:23.178Z,220.00
2023-02-15T06:51:24.176Z,236.00
2023-02-15T06:52:23.190Z,252.00
2023-02-15T06:53:23.189Z,264.00
2023-02-15T06:54:23.151Z,280.00
2023-02-15T06:55:23.151Z,292.00
2023-02-15T06:56:23.135Z,308.00
2023-02-15T06:57:23.131Z,316.00
2023-02-15T06:58:23.160Z,324.00
2023-02-15T06:59:23.142Z,336.00
2023-02-15T07:00:23.187Z,352.00
2023-02-15T07:01:23.142Z,368.00
2023-02-15T07:02:23.102Z,388.00
2023-02-15T07:03:23.116Z,408.00
2023-02-15T07:04:23.080Z,424.00
2023-02-15T07:05:23.070Z,432.00
2023-02-15T07:06:23.062Z,444.00
2023-02-15T07:07:23.053Z,464.00
2023-02-15T07:08:23.078Z,480.00
2023-02-15T07:09:23.039Z,492.00
2023-02-15T07:10:23.027Z,504.00
2023-02-15T07:11:23.023Z,520.00
2023-02-15T07:12:23.020Z,528.00
2023-02-15T07:13:23.037Z,536.00
2023-02-15T07:14:23.000Z,552.00
2023-02-15T07:15:22.998Z,584.00
2023-02-15T07:16:23.045Z,604.00
2023-02-15T07:17:36.668Z,612.00
2023-02-15T07:18:24.998Z,616.00
2023-02-15T07:19:22.956Z,632.00
2023-02-15T07:20:22.955Z,668.00
2023-02-15T07:21:22.944Z,680.00
2023-02-15T07:22:22.937Z,684.00
2023-02-15T07:23:22.928Z,692.00
2023-02-15T07:24:22.946Z,700.00
2023-02-15T07:25:22.921Z,720.00
2023-02-15T07:26:22.914Z,724.00
2023-02-15T07:27:22.924Z,736.00
2023-02-15T07:28:22.890Z,788.00
2023-02-15T07:29:22.919Z,820.00
2023-02-15T07:30:23.069Z,848.00
2023-02-15T07:31:22.907Z,864.00
2023-02-15T07:32:22.874Z,948.00
2023-02-15T07:33:22.857Z,1032.00
2023-02-15T07:34:22.879Z,1080.00
2023-02-15T07:35:22.845Z,1056.00
2023-02-15T07:36:22.835Z,1036.00
2023-02-15T07:37:22.825Z,1064.00
2023-02-15T07:38:22.827Z,1088.00
2023-02-15T07:39:22.841Z,1128.00
2023-02-15T07:40:22.803Z,1172.00
2023-02-15T07:41:22.801Z,1224.00
2023-02-15T07:42:22.787Z,1292.00
2023-02-15T07:43:22.780Z,1324.00
2023-02-15T07:44:22.797Z,1352.00
2023-02-15T07:45:22.774Z,1388.00
2023-02-15T07:46:22.854Z,1420.00
2023-02-15T07:47:22.749Z,1448.00
2023-02-15T07:48:24.880Z,1432.00
2023-02-15T07:49:23.760Z,1424.00
2023-02-15T07:50:22.734Z,1452.00
2023-02-15T07:51:22.716Z,1460.00
2023-02-15T07:52:22.713Z,1448.00
2023-02-15T07:53:22.712Z,1444.00
2023-02-15T07:54:22.728Z,1520.00
2023-02-15T07:55:22.709Z,1532.00
2023-02-15T07:56:22.695Z,1580.00
2023-02-15T07:57:22.678Z,1604.00
2023-02-15T07:58:22.675Z,1556.00
2023-02-15T07:59:22.689Z,1564.00
2023-02-15T08:00:22.664Z,1572.00
2023-02-15T08:01:22.646Z,1544.00
2023-02-15T08:02:22.642Z,1588.00
2023-02-15T08:03:22.784Z,1672.00
2023-02-15T08:04:22.669Z,1780.00
2023-02-15T08:05:22.615Z,1796.00
2023-02-15T08:06:22.613Z,1864.00
2023-02-15T08:07:22.602Z,1884.00
2023-02-15T08:08:22.595Z,1892.00
2023-02-15T08:09:22.640Z,1824.00
2023-02-15T08:10:24.467Z,1780.00
2023-02-15T08:11:22.571Z,1816.00
2023-02-15T08:12:22.570Z,1836.00
2023-02-15T08:13:22.561Z,1908.00
2023-02-15T08:14:22.584Z,1944.00
2023-02-15T08:15:22.547Z,1944.00
2023-02-15T08:16:22.574Z,1960.00
2023-02-15T08:17:22.562Z,1968.00
2023-02-15T08:18:22.528Z,2020.00
2023-02-15T08:19:22.543Z,2040.00
2023-02-15T08:20:22.508Z,2096.00
2023-02-15T08:21:24.844Z,2124.00
2023-02-15T08:22:23.496Z,2144.00
2023-02-15T08:23:22.485Z,2156.00
2023-02-15T08:24:22.502Z,2160.00
2023-02-15T08:25:22.470Z,2108.00
2023-02-15T08:26:22.462Z,2136.00
2023-02-15T08:27:22.458Z,2136.00
2023-02-15T08:28:22.457Z,2140.00
2023-02-15T08:29:22.480Z,2152.00
2023-02-15T08:30:22.510Z,2192.00
2023-02-15T08:31:22.509Z,2248.00
2023-02-15T08:32:22.468Z,2280.00
2023-02-15T08:33:22.414Z,2292.00
2023-02-15T08:34:22.450Z,2316.00
2023-02-15T08:35:22.449Z,2336.00
2023-02-15T08:36:22.414Z,2332.00
2023-02-15T08:37:22.389Z,2356.00
2023-02-15T08:38:22.398Z,2372.00
2023-02-15T08:39:22.394Z,2372.00
2023-02-15T08:40:22.362Z,2356.00
2023-02-15T08:41:22.364Z,2316.00
2023-02-15T08:42:22.354Z,2280.00
2023-02-15T08:43:22.338Z,2236.00
2023-02-15T08:44:22.361Z,2244.00
2023-02-15T08:45:22.323Z,2304.00
2023-02-15T08:46:22.314Z,2372.00
2023-02-15T08:47:22.309Z,2424.00
2023-02-15T08:48:22.305Z,2444.00
2023-02-15T08:49:22.333Z,2432.00
2023-02-15T08:50:22.286Z,2468.00
2023-02-15T08:51:22.296Z,2464.00
2023-02-15T08:52:22.288Z,2432.00
2023-02-15T08:53:22.268Z,2376.00
2023-02-15T08:54:22.293Z,2348.00
2023-02-15T08:55:22.254Z,2404.00
2023-02-15T08:56:22.243Z,2408.00
2023-02-15T08:57:22.241Z,2424.00
2023-02-15T08:58:22.233Z,2476.00
2023-02-15T08:59:22.249Z,2500.00
2023-02-15T09:00:22.214Z,2552.00
2023-02-15T09:01:22.275Z,2564.00
2023-02-15T09:02:22.248Z,2600.00
2023-02-15T09:03:22.194Z,2592.00
2023-02-15T09:04:22.205Z,2596.00
2023-02-15T09:05:22.192Z,2596.00
2023-02-15T09:06:22.168Z,2644.00
2023-02-15T09:07:22.155Z,2708.00
2023-02-15T09:08:22.173Z,2796.00
2023-02-15T09:09:22.175Z,2784.00
2023-02-15T09:10:22.136Z,2876.00
2023-02-15T09:11:22.127Z,2932.00
2023-02-15T09:12:22.122Z,2964.00
2023-02-15T09:13:22.114Z,2996.00
2023-02-15T09:14:22.183Z,2988.00
2023-02-15T09:15:22.094Z,2996.00
2023-02-15T09:16:22.180Z,3036.00
2023-02-15T09:17:22.074Z,3004.00
2023-02-15T09:18:22.067Z,3012.00
2023-02-15T09:19:22.198Z,3160.00
2023-02-15T09:20:22.049Z,3340.00
2023-02-15T09:21:22.040Z,3248.00
2023-02-15T09:22:22.042Z,3240.00
2023-02-15T09:23:27.046Z,3184.00
2023-02-15T09:24:24.071Z,3180.00
2023-02-15T09:25:22.015Z,3240.00
2023-02-15T09:26:22.011Z,3312.00
2023-02-15T09:27:22.001Z,3288.00
2023-02-15T09:28:21.993Z,3412.00
2023-02-15T09:29:22.107Z,3396.00
2023-02-15T09:30:22.068Z,3344.00
2023-02-15T09:31:22.075Z,3340.00
2023-02-15T09:32:21.958Z,3384.00
2023-02-15T09:33:21.969Z,3412.00
2023-02-15T09:34:21.988Z,3424.00
2023-02-15T09:35:21.964Z,3424.00
2023-02-15T09:36:21.927Z,3452.00
2023-02-15T09:37:21.922Z,3468.00
2023-02-15T09:38:21.912Z,3416.00
2023-02-15T09:39:21.932Z,3384.00
2023-02-15T09:40:21.910Z,3400.00
2023-02-15T09:41:21.892Z,3456.00
2023-02-15T09:42:21.894Z,3484.00
2023-02-15T09:43:21.873Z,3528.00
2023-02-15T09:44:21.866Z,3568.00
2023-02-15T09:45:21.880Z,3672.00
2023-02-15T09:46:21.894Z,3724.00
2023-02-15T09:47:21.839Z,3692.00
2023-02-15T09:48:21.832Z,3652.00
2023-02-15T09:49:21.828Z,3760.00
2023-02-15T09:50:21.859Z,3848.00
2023-02-15T09:51:21.811Z,3784.00
2023-02-15T09:52:21.802Z,3752.00
2023-02-15T09:53:21.800Z,3684.00
2023-02-15T09:54:21.787Z,3688.00
2023-02-15T09:55:21.806Z,3804.00
2023-02-15T09:56:21.778Z,3972.00
2023-02-15T09:57:21.768Z,4040.00
2023-02-15T09:58:21.761Z,3952.00
2023-02-15T09:59:21.752Z,4040.00
2023-02-15T10:00:21.764Z,4112.00
2023-02-15T10:01:21.754Z,4204.00
2023-02-15T10:02:21.737Z,4268.00
2023-02-15T10:03:21.728Z,4296.00
2023-02-15T10:04:21.751Z,4252.00
2023-02-15T10:05:21.739Z,4244.00
2023-02-15T10:06:21.699Z,4264.00
2023-02-15T10:07:21.694Z,4356.00
2023-02-15T10:08:21.692Z,4396.00
2023-02-15T10:09:21.679Z,4388.00
2023-02-15T10:10:21.692Z,4452.00
2023-02-15T10:11:21.698Z,4488.00
2023-02-15T10:12:21.653Z,4468.00
2023-02-15T10:13:21.641Z,4540.00
2023-02-15T10:14:21.641Z,4796.00
2023-02-15T10:15:21.671Z,4832.00
2023-02-15T10:16:21.632Z,4856.00
2023-02-15T10:17:21.613Z,4716.00
2023-02-15T10:18:21.606Z,4740.00
2023-02-15T10:19:21.598Z,4768.00
2023-02-15T10:20:21.630Z,4684.00
2023-02-15T10:21:21.584Z,4648.00
2023-02-15T10:22:21.574Z,4616.00
2023-02-15T10:23:21.570Z,4668.00
2023-02-15T10:24:21.562Z,4780.00
2023-02-15T10:25:21.582Z,4900.00
2023-02-15T10:26:21.539Z,4884.00
2023-02-15T10:27:21.534Z,4904.00
2023-02-15T10:28:21.547Z,4800.00
2023-02-15T10:29:21.517Z,4776.00
2023-02-15T10:30:21.636Z,4808.00
2023-02-15T10:31:21.568Z,4692.00
2023-02-15T10:32:21.553Z,4596.00
2023-02-15T10:33:22.486Z,4600.00
2023-02-15T10:34:21.478Z,4572.00
2023-02-15T10:35:21.498Z,4548.00
2023-02-15T10:36:21.461Z,4552.00
2023-02-15T10:37:21.458Z,4528.00
2023-02-15T10:38:21.452Z,4440.00
2023-02-15T10:39:21.439Z,4336.00
2023-02-15T10:40:21.526Z,4404.00
2023-02-15T10:41:21.433Z,4468.00
2023-02-15T10:42:21.420Z,4580.00
2023-02-15T10:43:21.414Z,4604.00
2023-02-15T10:44:21.416Z,4672.00
2023-02-15T10:45:21.428Z,4756.00
2023-02-15T10:46:21.475Z,4700.00
2023-02-15T10:47:22.385Z,4704.00
2023-02-15T10:48:21.374Z,4668.00
2023-02-15T10:49:21.380Z,4748.00
2023-02-15T10:50:21.491Z,4724.00
2023-02-15T10:51:21.361Z,4588.00
2023-02-15T10:52:23.041Z,4564.00
2023-02-15T10:53:21.340Z,4528.00
2023-02-15T10:54:21.331Z,4532.00
2023-02-15T10:55:21.336Z,4480.00
2023-02-15T10:56:21.352Z,4392.00
2023-02-15T10:57:21.316Z,4400.00
2023-02-15T10:58:21.308Z,4492.00
2023-02-15T10:59:21.371Z,4640.00
2023-02-15T11:00:21.281Z,4768.00
2023-02-15T11:01:21.364Z,4812.00
2023-02-15T11:02:21.276Z,4904.00
2023-02-15T11:03:21.260Z,5128.00
2023-02-15T11:04:21.254Z,5268.00
2023-02-15T11:05:21.321Z,5152.00
2023-02-15T11:06:21.261Z,5120.00
2023-02-15T11:07:21.228Z,5172.00
2023-02-15T11:08:21.228Z,5116.00
2023-02-15T11:09:21.209Z,5012.00
2023-02-15T11:10:21.315Z,5012.00
2023-02-15T11:11:21.223Z,4928.00
2023-02-15T11:12:21.189Z,5028.00
2023-02-15T11:13:21.181Z,5152.00
2023-02-15T11:14:21.170Z,5216.00
2023-02-15T11:15:21.172Z,5236.00
2023-02-15T11:16:21.233Z,5272.00
2023-02-15T11:17:21.166Z,5196.00
2023-02-15T11:18:21.154Z,5308.00
2023-02-15T11:19:21.142Z,5388.00
2023-02-15T11:20:21.126Z,5424.00
2023-02-15T11:21:21.151Z,5400.00
2023-02-15T11:22:21.132Z,5332.00
2023-02-15T11:23:21.104Z,5196.00
2023-02-15T11:24:21.133Z,4972.00
2023-02-15T11:25:21.093Z,4848.00
2023-02-15T11:26:21.115Z,4748.00
2023-02-15T11:27:21.151Z,4768.00
2023-02-15T11:28:21.073Z,4736.00
2023-02-15T11:29:21.069Z,4792.00
2023-02-15T11:30:21.088Z,4884.00
2023-02-15T11:31:21.194Z,5176.00
2023-02-15T11:32:21.140Z,5276.00
2023-02-15T11:33:21.029Z,5244.00
2023-02-15T11:34:21.040Z,5400.00
2023-02-15T11:35:21.014Z,5408.00
2023-02-15T11:36:21.028Z,5420.00
2023-02-15T11:37:20.999Z,5428.00
2023-02-15T11:38:20.993Z,5448.00
2023-02-15T11:39:20.977Z,5500.00
2023-02-15T11:40:20.972Z,5628.00
2023-02-15T11:41:20.993Z,5616.00
2023-02-15T11:42:20.958Z,5568.00
2023-02-15T11:43:20.953Z,5504.00
2023-02-15T11:44:20.942Z,5664.00
2023-02-15T11:45:20.933Z,5748.00
2023-02-15T11:46:20.964Z,5716.00
2023-02-15T11:47:20.917Z,5640.00
2023-02-15T11:48:20.908Z,5388.00
2023-02-15T11:49:20.918Z,5300.00
2023-02-15T11:50:20.895Z,5256.00
2023-02-15T11:51:23.456Z,5300.00
2023-02-15T11:52:21.884Z,5268.00
2023-02-15T11:53:20.880Z,5292.00
2023-02-15T11:54:20.868Z,5280.00
2023-02-15T11:55:20.868Z,5236.00
2023-02-15T11:56:20.879Z,4980.00
2023-02-15T11:57:22.349Z,4760.00
2023-02-15T11:58:21.835Z,4900.00
2023-02-15T11:59:20.847Z,4888.00
2023-02-15T12:00:20.833Z,4992.00
2023-02-15T12:01:20.841Z,5216.00
2023-02-15T12:02:20.873Z,5208.00
2023-02-15T12:03:23.419Z,5076.00
2023-02-15T12:04:20.870Z,5040.00
2023-02-15T12:05:20.787Z,4940.00
2023-02-15T12:06:20.803Z,4972.00
2023-02-15T12:07:20.770Z,5112.00
2023-02-15T12:08:20.766Z,5012.00
2023-02-15T12:09:23.364Z,5100.00
2023-02-15T12:10:20.750Z,5244.00
2023-02-15T12:11:20.766Z,5064.00
2023-02-15T12:12:20.734Z,5008.00
2023-02-15T12:13:20.724Z,5112.00
2023-02-15T12:14:20.718Z,4804.00
2023-02-15T12:15:20.708Z,4892.00
2023-02-15T12:16:20.782Z,4948.00
2023-02-15T12:17:20.688Z,4860.00
2023-02-15T12:18:20.681Z,4860.00
2023-02-15T12:19:20.767Z,4900.00
2023-02-15T12:20:20.675Z,4908.00
2023-02-15T12:21:20.660Z,4976.00
2023-02-15T12:22:20.728Z,5188.00
2023-02-15T12:23:20.639Z,5172.00
2023-02-15T12:24:20.631Z,5104.00
2023-02-15T12:25:20.624Z,5072.00
2023-02-15T12:26:20.617Z,5040.00
2023-02-15T12:27:20.639Z,4996.00
2023-02-15T12:28:20.602Z,5072.00
2023-02-15T12:29:20.596Z,5080.00
2023-02-15T12:30:20.624Z,4996.00
2023-02-15T12:31:20.676Z,4872.00
2023-02-15T12:32:20.659Z,4824.00
2023-02-15T12:33:20.569Z,4772.00
2023-02-15T12:34:20.569Z,4864.00
2023-02-15T12:35:20.559Z,4852.00
2023-02-15T12:36:20.548Z,4788.00
2023-02-15T12:37:20.573Z,4740.00
2023-02-15T12:38:20.538Z,4744.00
2023-02-15T12:39:20.557Z,4752.00
2023-02-15T12:40:20.517Z,4740.00
2023-02-15T12:41:20.511Z,4748.00
2023-02-15T12:42:20.538Z,4844.00
2023-02-15T12:43:20.494Z,4920.00